Terminal Aerodrome Forecast
Issued by NWS Nashville, TN

Home | Current Version | Previous Version | Text Only | Print | Product List | Glossary On
Versions: 1 2 3 4 5 6 7 8 9 10 11 12 13 14 15 16
000
FTUS44 KOHX 251006 AAA
TAFCSV
TAF AMD
KCSV 251006Z 2510/2606 18010G20KT P6SM SKC WS020/18040KT
     FM251300 17011G17KT P6SM OVC140
     FM260000 16010G15KT P6SM VCSH OVC070 PROB30 2602/2604 2SM TSRA
      OVC035CB=

USA.gov is the U.S. government's official web portal to all federal, state and local government web resources and services.